sensor_id;sensor_type;location;lat;lon;timestamp;temperature;humidity
45807;DHT22;31507;51.494;7.518;2023-07-22T00:00:44;12.20;99.90
45807;DHT22;31507;51.494;7.518;2023-07-22T00:03:09;12.20;99.90
45807;DHT22;31507;51.494;7.518;2023-07-22T00:05:35;12.20;99.90
45807;DHT22;31507;51.494;7.518;2023-07-22T00:08:01;12.30;99.90
45807;DHT22;31507;51.494;7.518;2023-07-22T00:10:26;12.20;99.90
45807;DHT22;31507;51.494;7.518;2023-07-22T00:12:52;12.10;99.90
45807;DHT22;31507;51.494;7.518;2023-07-22T00:15:18;12.00;99.90
45807;DHT22;31507;51.494;7.518;2023-07-22T00:17:45;12.00;99.90
45807;DHT22;31507;51.494;7.518;2023-07-22T00:20:11;12.10;99.90
45807;DHT22;31507;51.494;7.518;2023-07-22T00:22:38;12.10;99.90
45807;DHT22;31507;51.494;7.518;2023-07-22T00:25:06;12.00;99.90
45807;DHT22;31507;51.494;7.518;2023-07-22T00:27:33;12.10;99.90
45807;DHT22;31507;51.494;7.518;2023-07-22T00:29:58;12.20;99.90
45807;DHT22;31507;51.494;7.518;2023-07-22T00:32:24;12.20;99.90
45807;DHT22;31507;51.494;7.518;2023-07-22T00:34:50;12.10;99.90
45807;DHT22;31507;51.494;7.518;2023-07-22T00:37:16;12.10;99.90
45807;DHT22;31507;51.494;7.518;2023-07-22T00:39:42;12.00;99.90
45807;DHT22;31507;51.494;7.518;2023-07-22T00:42:07;12.00;99.90
45807;DHT22;31507;51.494;7.518;2023-07-22T00:44:33;11.90;99.90
45807;DHT22;31507;51.494;7.518;2023-07-22T00:46:59;11.80;99.90
45807;DHT22;31507;51.494;7.518;2023-07-22T00:49:26;11.70;99.90
45807;DHT22;31507;51.494;7.518;2023-07-22T00:51:52;11.70;99.90
45807;DHT22;31507;51.494;7.518;2023-07-22T00:54:18;11.70;99.90
45807;DHT22;31507;51.494;7.518;2023-07-22T00:56:44;11.70;99.90
45807;DHT22;31507;51.494;7.518;2023-07-22T00:59:10;11.80;99.90
45807;DHT22;31507;51.494;7.518;2023-07-22T01:01:36;11.80;99.90
45807;DHT22;31507;51.494;7.518;2023-07-22T01:04:01;11.80;99.90
45807;DHT22;31507;51.494;7.518;2023-07-22T01:06:29;11.80;99.90
45807;DHT22;31507;51.494;7.518;2023-07-22T01:08:57;11.90;99.90
45807;DHT22;31507;51.494;7.518;2023-07-22T01:11:24;11.90;99.90
45807;DHT22;31507;51.494;7.518;2023-07-22T01:13:49;12.00;99.90
45807;DHT22;31507;51.494;7.518;2023-07-22T01:16:15;12.00;99.90
45807;DHT22;31507;51.494;7.518;2023-07-22T01:18:42;12.10;99.90
45807;DHT22;31507;51.494;7.518;2023-07-22T01:21:08;12.10;99.90
45807;DHT22;31507;51.494;7.518;2023-07-22T01:23:36;12.10;99.90
45807;DHT22;31507;51.494;7.518;2023-07-22T01:26:02;12.20;99.90
45807;DHT22;31507;51.494;7.518;2023-07-22T01:28:28;12.20;99.90
45807;DHT22;31507;51.494;7.518;2023-07-22T01:30:53;12.20;99.90
45807;DHT22;31507;51.494;7.518;2023-07-22T01:33:20;12.20;99.90
45807;DHT22;31507;51.494;7.518;2023-07-22T01:35:46;12.30;99.90
45807;DHT22;31507;51.494;7.518;2023-07-22T01:38:12;12.30;99.90
45807;DHT22;31507;51.494;7.518;2023-07-22T01:40:37;12.30;99.90
45807;DHT22;31507;51.494;7.518;2023-07-22T01:43:03;12.20;99.90
45807;DHT22;31507;51.494;7.518;2023-07-22T01:45:29;12.10;99.90
45807;DHT22;31507;51.494;7.518;2023-07-22T01:47:55;12.10;99.90
45807;DHT22;31507;51.494;7.518;2023-07-22T01:50:20;12.00;99.90
45807;DHT22;31507;51.494;7.518;2023-07-22T01:52:46;12.00;99.90
45807;DHT22;31507;51.494;7.518;2023-07-22T01:55:12;12.00;99.90
45807;DHT22;31507;51.494;7.518;2023-07-22T01:57:38;12.00;99.90
45807;DHT22;31507;51.494;7.518;2023-07-22T02:00:05;12.00;99.90
45807;DHT22;31507;51.494;7.518;2023-07-22T02:02:32;12.00;99.90
45807;DHT22;31507;51.494;7.518;2023-07-22T02:04:57;12.10;99.90
45807;DHT22;31507;51.494;7.518;2023-07-22T02:07:23;12.10;99.90
45807;DHT22;31507;51.494;7.518;2023-07-22T02:09:51;12.10;99.90
45807;DHT22;31507;51.494;7.518;2023-07-22T02:12:17;12.10;99.90
45807;DHT22;31507;51.494;7.518;2023-07-22T02:14:43;12.20;99.90
45807;DHT22;31507;51.494;7.518;2023-07-22T02:17:09;12.20;99.90
45807;DHT22;31507;51.494;7.518;2023-07-22T02:19:36;12.20;99.90
45807;DHT22;31507;51.494;7.518;2023-07-22T02:22:03;12.20;99.90
45807;DHT22;31507;51.494;7.518;2023-07-22T02:24:29;12.30;99.90
45807;DHT22;31507;51.494;7.518;2023-07-22T02:26:54;12.30;99.90
45807;DHT22;31507;51.494;7.518;2023-07-22T02:29:20;12.20;99.90
45807;DHT22;31507;51.494;7.518;2023-07-22T02:31:46;12.20;99.90
45807;DHT22;31507;51.494;7.518;2023-07-22T02:34:12;12.20;99.90
45807;DHT22;31507;51.494;7.518;2023-07-22T02:36:37;12.20;99.90
45807;DHT22;31507;51.494;7.518;2023-07-22T02:39:03;12.10;99.90
45807;DHT22;31507;51.494;7.518;2023-07-22T02:41:29;12.10;99.90
45807;DHT22;31507;51.494;7.518;2023-07-22T02:43:54;12.10;99.90
45807;DHT22;31507;51.494;7.518;2023-07-22T02:46:20;12.10;99.90
45807;DHT22;31507;51.494;7.518;2023-07-22T02:48:45;12.10;99.90
45807;DHT22;31507;51.494;7.518;2023-07-22T02:51:11;12.10;99.90
45807;DHT22;31507;51.494;7.518;2023-07-22T02:53:37;12.20;99.90
45807;DHT22;31507;51.494;7.518;2023-07-22T02:56:04;12.20;99.90
45807;DHT22;31507;51.494;7.518;2023-07-22T02:58:30;12.20;99.90
45807;DHT22;31507;51.494;7.518;2023-07-22T03:00:55;12.30;99.90
45807;DHT22;31507;51.494;7.518;2023-07-22T03:03:23;12.40;99.90
45807;DHT22;31507;51.494;7.518;2023-07-22T03:05:48;12.50;99.90
45807;DHT22;31507;51.494;7.518;2023-07-22T03:08:14;12.60;99.90
45807;DHT22;31507;51.494;7.518;2023-07-22T03:10:40;12.80;99.90
45807;DHT22;31507;51.494;7.518;2023-07-22T03:13:06;13.00;99.90
45807;DHT22;31507;51.494;7.518;2023-07-22T03:15:32;13.00;99.90
45807;DHT22;31507;51.494;7.518;2023-07-22T03:17:58;13.10;99.90
45807;DHT22;31507;51.494;7.518;2023-07-22T03:20:25;13.20;99.90
45807;DHT22;31507;51.494;7.518;2023-07-22T03:22:51;13.30;99.90
45807;DHT22;31507;51.494;7.518;2023-07-22T03:25:19;13.40;99.90
45807;DHT22;31507;51.494;7.518;2023-07-22T03:27:45;13.50;99.90
45807;DHT22;31507;51.494;7.518;2023-07-22T03:30:13;13.50;99.90
45807;DHT22;31507;51.494;7.518;2023-07-22T03:32:41;13.50;99.90
45807;DHT22;31507;51.494;7.518;2023-07-22T03:35:08;13.60;99.90
45807;DHT22;31507;51.494;7.518;2023-07-22T03:37:37;13.60;99.90
45807;DHT22;31507;51.494;7.518;2023-07-22T03:40:07;13.70;99.90
45807;DHT22;31507;51.494;7.518;2023-07-22T03:42:37;13.70;99.90
45807;DHT22;31507;51.494;7.518;2023-07-22T03:45:03;13.80;99.90
45807;DHT22;31507;51.494;7.518;2023-07-22T03:47:29;13.80;99.90
45807;DHT22;31507;51.494;7.518;2023-07-22T03:49:54;13.80;99.90
45807;DHT22;31507;51.494;7.518;2023-07-22T03:52:20;13.90;99.90
45807;DHT22;31507;51.494;7.518;2023-07-22T03:54:46;13.90;99.90
45807;DHT22;31507;51.494;7.518;2023-07-22T03:57:11;13.90;99.90
45807;DHT22;31507;51.494;7.518;2023-07-22T03:59:38;13.90;99.90
45807;DHT22;31507;51.494;7.518;2023-07-22T04:02:04;14.00;99.90
45807;DHT22;31507;51.494;7.518;2023-07-22T04:04:31;14.00;99.90
45807;DHT22;31507;51.494;7.518;2023-07-22T04:06:56;14.00;99.90
45807;DHT22;31507;51.494;7.518;2023-07-22T04:09:22;14.00;99.90
45807;DHT22;31507;51.494;7.518;2023-07-22T04:11:48;14.00;99.90
45807;DHT22;31507;51.494;7.518;2023-07-22T04:14:13;14.00;99.90
45807;DHT22;31507;51.494;7.518;2023-07-22T04:16:39;14.00;99.90
45807;DHT22;31507;51.494;7.518;2023-07-22T04:19:05;14.00;99.90
45807;DHT22;31507;51.494;7.518;2023-07-22T04:21:31;14.00;99.90
45807;DHT22;31507;51.494;7.518;2023-07-22T04:23:57;14.10;99.90
45807;DHT22;31507;51.494;7.518;2023-07-22T04:26:23;14.10;99.90
45807;DHT22;31507;51.494;7.518;2023-07-22T04:28:48;14.10;99.90
45807;DHT22;31507;51.494;7.518;2023-07-22T04:31:14;14.20;99.90
45807;DHT22;31507;51.494;7.518;2023-07-22T04:33:39;14.20;99.90
45807;DHT22;31507;51.494;7.518;2023-07-22T04:36:06;14.20;99.90
45807;DHT22;31507;51.494;7.518;2023-07-22T04:38:32;14.30;99.90
45807;DHT22;31507;51.494;7.518;2023-07-22T04:40:58;14.30;99.90
45807;DHT22;31507;51.494;7.518;2023-07-22T04:43:24;14.30;99.90
45807;DHT22;31507;51.494;7.518;2023-07-22T04:45:50;14.30;99.90
45807;DHT22;31507;51.494;7.518;2023-07-22T04:48:20;14.40;99.90
45807;DHT22;31507;51.494;7.518;2023-07-22T04:50:46;14.40;99.90
45807;DHT22;31507;51.494;7.518;2023-07-22T04:53:12;14.40;99.90
45807;DHT22;31507;51.494;7.518;2023-07-22T04:55:39;14.40;99.90
45807;DHT22;31507;51.494;7.518;2023-07-22T04:58:05;14.40;99.90
45807;DHT22;31507;51.494;7.518;2023-07-22T05:00:31;14.50;99.90
45807;DHT22;31507;51.494;7.518;2023-07-22T05:02:57;14.50;99.90
45807;DHT22;31507;51.494;7.518;2023-07-22T05:05:22;14.50;99.90
45807;DHT22;31507;51.494;7.518;2023-07-22T05:07:48;14.50;99.90
45807;DHT22;31507;51.494;7.518;2023-07-22T05:10:15;14.50;99.90
45807;DHT22;31507;51.494;7.518;2023-07-22T05:12:41;14.50;99.90
45807;DHT22;31507;51.494;7.518;2023-07-22T05:15:09;14.60;99.90
45807;DHT22;31507;51.494;7.518;2023-07-22T05:17:34;14.60;99.90
45807;DHT22;31507;51.494;7.518;2023-07-22T05:20:00;14.70;99.90
45807;DHT22;31507;51.494;7.518;2023-07-22T05:22:26;14.70;99.90
45807;DHT22;31507;51.494;7.518;2023-07-22T05:24:51;14.80;99.90
45807;DHT22;31507;51.494;7.518;2023-07-22T05:27:17;14.90;99.90
45807;DHT22;31507;51.494;7.518;2023-07-22T05:29:43;14.90;99.90
45807;DHT22;31507;51.494;7.518;2023-07-22T05:32:09;15.00;99.90
45807;DHT22;31507;51.494;7.518;2023-07-22T05:34:35;15.10;99.90
45807;DHT22;31507;51.494;7.518;2023-07-22T05:37:00;15.10;99.90
45807;DHT22;31507;51.494;7.518;2023-07-22T05:39:26;15.10;99.90
45807;DHT22;31507;51.494;7.518;2023-07-22T05:41:52;15.20;99.90
45807;DHT22;31507;51.494;7.518;2023-07-22T05:44:17;15.20;99.90
45807;DHT22;31507;51.494;7.518;2023-07-22T05:46:43;15.20;99.90
45807;DHT22;31507;51.494;7.518;2023-07-22T05:49:09;15.20;99.90
45807;DHT22;31507;51.494;7.518;2023-07-22T05:51:36;15.10;99.90
45807;DHT22;31507;51.494;7.518;2023-07-22T05:54:02;15.10;99.90
45807;DHT22;31507;51.494;7.518;2023-07-22T05:56:28;15.20;99.90
45807;DHT22;31507;51.494;7.518;2023-07-22T05:58:54;16.00;99.90
45807;DHT22;31507;51.494;7.518;2023-07-22T06:01:19;16.30;99.90
45807;DHT22;31507;51.494;7.518;2023-07-22T06:03:45;16.60;99.90
45807;DHT22;31507;51.494;7.518;2023-07-22T06:06:11;17.40;99.90
45807;DHT22;31507;51.494;7.518;2023-07-22T06:08:36;17.90;99.90
45807;DHT22;31507;51.494;7.518;2023-07-22T06:11:02;18.70;99.90
45807;DHT22;31507;51.494;7.518;2023-07-22T06:13:28;19.50;98.30
45807;DHT22;31507;51.494;7.518;2023-07-22T06:15:53;19.90;95.60
45807;DHT22;31507;51.494;7.518;2023-07-22T06:18:19;20.30;94.70
45807;DHT22;31507;51.494;7.518;2023-07-22T06:20:45;20.40;93.80
45807;DHT22;31507;51.494;7.518;2023-07-22T06:23:11;20.20;93.30
45807;DHT22;31507;51.494;7.518;2023-07-22T06:25:36;19.90;92.80
45807;DHT22;31507;51.494;7.518;2023-07-22T06:28:02;19.90;92.30
45807;DHT22;31507;51.494;7.518;2023-07-22T06:30:28;19.80;91.20
45807;DHT22;31507;51.494;7.518;2023-07-22T06:32:54;19.70;91.70
45807;DHT22;31507;51.494;7.518;2023-07-22T06:35:20;19.60;91.80
45807;DHT22;31507;51.494;7.518;2023-07-22T06:37:45;19.20;92.40
45807;DHT22;31507;51.494;7.518;2023-07-22T06:40:11;18.90;92.90
45807;DHT22;31507;51.494;7.518;2023-07-22T06:42:37;18.70;93.70
45807;DHT22;31507;51.494;7.518;2023-07-22T06:45:05;18.70;93.90
45807;DHT22;31507;51.494;7.518;2023-07-22T06:47:31;18.60;93.30
45807;DHT22;31507;51.494;7.518;2023-07-22T06:49:56;18.80;93.60
45807;DHT22;31507;51.494;7.518;2023-07-22T06:52:22;19.20;93.00
45807;DHT22;31507;51.494;7.518;2023-07-22T06:54:48;19.50;92.60
45807;DHT22;31507;51.494;7.518;2023-07-22T06:57:13;19.90;92.00
45807;DHT22;31507;51.494;7.518;2023-07-22T06:59:39;20.20;91.60
45807;DHT22;31507;51.494;7.518;2023-07-22T07:02:05;20.60;91.10
45807;DHT22;31507;51.494;7.518;2023-07-22T07:04:30;20.90;90.10
45807;DHT22;31507;51.494;7.518;2023-07-22T07:06:56;21.10;88.30
45807;DHT22;31507;51.494;7.518;2023-07-22T07:09:22;20.60;89.80
45807;DHT22;31507;51.494;7.518;2023-07-22T07:11:47;20.60;89.70
45807;DHT22;31507;51.494;7.518;2023-07-22T07:14:13;20.70;89.70
45807;DHT22;31507;51.494;7.518;2023-07-22T07:16:39;20.80;90.10
45807;DHT22;31507;51.494;7.518;2023-07-22T07:19:04;20.50;88.80
45807;DHT22;31507;51.494;7.518;2023-07-22T07:21:30;20.50;87.80
45807;DHT22;31507;51.494;7.518;2023-07-22T07:23:56;20.60;87.40
45807;DHT22;31507;51.494;7.518;2023-07-22T07:26:22;20.60;87.50
45807;DHT22;31507;51.494;7.518;2023-07-22T07:28:48;20.80;86.70
45807;DHT22;31507;51.494;7.518;2023-07-22T07:31:14;20.80;86.50
45807;DHT22;31507;51.494;7.518;2023-07-22T07:33:40;20.70;86.30
45807;DHT22;31507;51.494;7.518;2023-07-22T07:36:05;20.80;86.90
45807;DHT22;31507;51.494;7.518;2023-07-22T07:38:31;20.80;86.00
45807;DHT22;31507;51.494;7.518;2023-07-22T07:40:59;20.80;85.60
45807;DHT22;31507;51.494;7.518;2023-07-22T07:43:26;20.90;85.90
45807;DHT22;31507;51.494;7.518;2023-07-22T07:46:12;21.30;85.20
45807;DHT22;31507;51.494;7.518;2023-07-22T07:48:38;21.20;81.30
45807;DHT22;31507;51.494;7.518;2023-07-22T07:51:03;21.10;83.40
45807;DHT22;31507;51.494;7.518;2023-07-22T07:53:29;20.90;82.90
45807;DHT22;31507;51.494;7.518;2023-07-22T07:55:55;21.00;82.50
45807;DHT22;31507;51.494;7.518;2023-07-22T07:58:20;20.70;81.30
45807;DHT22;31507;51.494;7.518;2023-07-22T08:00:46;20.60;82.20
45807;DHT22;31507;51.494;7.518;2023-07-22T08:03:11;20.70;81.40
45807;DHT22;31507;51.494;7.518;2023-07-22T08:05:37;20.60;80.90
45807;DHT22;31507;51.494;7.518;2023-07-22T08:08:03;20.70;81.10
45807;DHT22;31507;51.494;7.518;2023-07-22T08:10:28;20.90;80.40
45807;DHT22;31507;51.494;7.518;2023-07-22T08:12:54;21.20;80.40
45807;DHT22;31507;51.494;7.518;2023-07-22T08:15:19;21.20;79.10
45807;DHT22;31507;51.494;7.518;2023-07-22T08:17:45;21.20;78.60
45807;DHT22;31507;51.494;7.518;2023-07-22T08:20:11;21.10;78.60
45807;DHT22;31507;51.494;7.518;2023-07-22T08:22:36;21.10;78.10
45807;DHT22;31507;51.494;7.518;2023-07-22T08:25:02;21.30;78.30
45807;DHT22;31507;51.494;7.518;2023-07-22T08:27:28;21.50;77.50
45807;DHT22;31507;51.494;7.518;2023-07-22T08:29:54;21.50;77.10
45807;DHT22;31507;51.494;7.518;2023-07-22T08:32:19;21.20;77.30
45807;DHT22;31507;51.494;7.518;2023-07-22T08:34:45;21.30;75.90
45807;DHT22;31507;51.494;7.518;2023-07-22T08:37:11;21.10;76.30
45807;DHT22;31507;51.494;7.518;2023-07-22T08:39:37;21.30;76.40
45807;DHT22;31507;51.494;7.518;2023-07-22T08:42:03;21.40;76.30
45807;DHT22;31507;51.494;7.518;2023-07-22T08:44:32;21.40;75.50
45807;DHT22;31507;51.494;7.518;2023-07-22T08:47:02;21.70;74.90
45807;DHT22;31507;51.494;7.518;2023-07-22T08:49:31;22.00;74.30
45807;DHT22;31507;51.494;7.518;2023-07-22T08:51:59;22.20;73.60
45807;DHT22;31507;51.494;7.518;2023-07-22T08:54:25;22.30;73.70
45807;DHT22;31507;51.494;7.518;2023-07-22T08:56:51;22.30;73.80
45807;DHT22;31507;51.494;7.518;2023-07-22T08:59:18;22.00;73.30
45807;DHT22;31507;51.494;7.518;2023-07-22T09:01:44;21.40;73.50
45807;DHT22;31507;51.494;7.518;2023-07-22T09:04:11;21.30;73.20
45807;DHT22;31507;51.494;7.518;2023-07-22T09:06:37;21.10;72.90
45807;DHT22;31507;51.494;7.518;2023-07-22T09:09:03;21.00;73.10
45807;DHT22;31507;51.494;7.518;2023-07-22T09:11:33;21.30;73.60
45807;DHT22;31507;51.494;7.518;2023-07-22T09:14:00;21.60;73.60
45807;DHT22;31507;51.494;7.518;2023-07-22T09:16:27;21.70;72.60
45807;DHT22;31507;51.494;7.518;2023-07-22T09:18:55;21.90;72.60
45807;DHT22;31507;51.494;7.518;2023-07-22T09:21:22;21.90;71.70
45807;DHT22;31507;51.494;7.518;2023-07-22T09:23:48;21.80;71.40
45807;DHT22;31507;51.494;7.518;2023-07-22T09:26:16;21.60;70.60
45807;DHT22;31507;51.494;7.518;2023-07-22T09:31:13;21.60;69.50
45807;DHT22;31507;51.494;7.518;2023-07-22T09:33:39;21.60;69.70
45807;DHT22;31507;51.494;7.518;2023-07-22T09:36:05;21.60;70.60
45807;DHT22;31507;51.494;7.518;2023-07-22T09:38:30;21.40;70.90
45807;DHT22;31507;51.494;7.518;2023-07-22T09:40:56;21.30;71.70
45807;DHT22;31507;51.494;7.518;2023-07-22T09:43:23;21.30;72.00
45807;DHT22;31507;51.494;7.518;2023-07-22T09:45:49;21.30;72.10
45807;DHT22;31507;51.494;7.518;2023-07-22T09:48:15;21.40;72.40
45807;DHT22;31507;51.494;7.518;2023-07-22T09:50:41;21.30;72.80
45807;DHT22;31507;51.494;7.518;2023-07-22T09:53:07;21.20;72.80
45807;DHT22;31507;51.494;7.518;2023-07-22T09:55:33;21.10;73.20
45807;DHT22;31507;51.494;7.518;2023-07-22T09:58:01;20.90;72.70
45807;DHT22;31507;51.494;7.518;2023-07-22T10:00:32;20.90;72.00
45807;DHT22;31507;51.494;7.518;2023-07-22T10:02:59;20.90;72.90
45807;DHT22;31507;51.494;7.518;2023-07-22T10:05:26;21.10;72.90
45807;DHT22;31507;51.494;7.518;2023-07-22T10:07:56;21.30;72.60
45807;DHT22;31507;51.494;7.518;2023-07-22T10:12:59;21.30;71.50
45807;DHT22;31507;51.494;7.518;2023-07-22T10:15:27;21.50;72.40
45807;DHT22;31507;51.494;7.518;2023-07-22T10:17:55;21.70;71.20
45807;DHT22;31507;51.494;7.518;2023-07-22T10:20:22;21.80;71.40
45807;DHT22;31507;51.494;7.518;2023-07-22T10:22:49;21.80;72.00
45807;DHT22;31507;51.494;7.518;2023-07-22T10:25:16;21.80;71.70
45807;DHT22;31507;51.494;7.518;2023-07-22T10:27:43;22.00;71.40
45807;DHT22;31507;51.494;7.518;2023-07-22T10:30:13;22.00;70.30
45807;DHT22;31507;51.494;7.518;2023-07-22T10:32:45;21.90;70.60
45807;DHT22;31507;51.494;7.518;2023-07-22T10:35:14;22.10;70.40
45807;DHT22;31507;51.494;7.518;2023-07-22T10:37:45;22.30;70.40
45807;DHT22;31507;51.494;7.518;2023-07-22T10:40:59;22.70;69.00
45807;DHT22;31507;51.494;7.518;2023-07-22T10:43:06;23.20;67.40
45807;DHT22;31507;51.494;7.518;2023-07-22T10:45:41;24.00;67.50
45807;DHT22;31507;51.494;7.518;2023-07-22T10:48:08;24.50;64.60
45807;DHT22;31507;51.494;7.518;2023-07-22T10:50:41;24.30;65.40
45807;DHT22;31507;51.494;7.518;2023-07-22T10:53:13;24.30;64.80
45807;DHT22;31507;51.494;7.518;2023-07-22T11:12:04;23.10;65.90
45807;DHT22;31507;51.494;7.518;2023-07-22T11:14:32;23.70;66.90
45807;DHT22;31507;51.494;7.518;2023-07-22T11:17:00;23.70;66.40
45807;DHT22;31507;51.494;7.518;2023-07-22T11:19:26;23.80;64.40
45807;DHT22;31507;51.494;7.518;2023-07-22T11:21:53;23.80;64.90
45807;DHT22;31507;51.494;7.518;2023-07-22T11:24:21;23.90;65.20
45807;DHT22;31507;51.494;7.518;2023-07-22T11:26:48;24.10;65.00
45807;DHT22;31507;51.494;7.518;2023-07-22T11:29:14;24.00;64.20
45807;DHT22;31507;51.494;7.518;2023-07-22T11:31:42;24.10;64.00
45807;DHT22;31507;51.494;7.518;2023-07-22T11:34:09;23.80;63.20
45807;DHT22;31507;51.494;7.518;2023-07-22T11:36:35;23.40;63.70
45807;DHT22;31507;51.494;7.518;2023-07-22T11:39:09;23.90;62.60
45807;DHT22;31507;51.494;7.518;2023-07-22T11:41:35;24.20;62.20
45807;DHT22;31507;51.494;7.518;2023-07-22T11:44:03;24.40;62.40
45807;DHT22;31507;51.494;7.518;2023-07-22T11:46:35;24.80;62.10
45807;DHT22;31507;51.494;7.518;2023-07-22T11:49:01;24.80;62.00
45807;DHT22;31507;51.494;7.518;2023-07-22T11:51:27;25.00;61.00
45807;DHT22;31507;51.494;7.518;2023-07-22T11:53:54;25.00;60.60
45807;DHT22;31507;51.494;7.518;2023-07-22T11:56:25;24.50;60.70
45807;DHT22;31507;51.494;7.518;2023-07-22T11:58:53;24.50;60.10
45807;DHT22;31507;51.494;7.518;2023-07-22T12:01:19;24.30;60.30
45807;DHT22;31507;51.494;7.518;2023-07-22T12:03:45;24.10;60.60
45807;DHT22;31507;51.494;7.518;2023-07-22T12:06:12;24.20;60.50
45807;DHT22;31507;51.494;7.518;2023-07-22T12:08:48;24.10;60.70
45807;DHT22;31507;51.494;7.518;2023-07-22T12:11:24;23.90;59.50
45807;DHT22;31507;51.494;7.518;2023-07-22T12:14:13;23.70;59.60
45807;DHT22;31507;51.494;7.518;2023-07-22T12:16:42;23.80;58.60
45807;DHT22;31507;51.494;7.518;2023-07-22T12:19:09;23.80;60.40
45807;DHT22;31507;51.494;7.518;2023-07-22T12:21:35;24.10;59.60
45807;DHT22;31507;51.494;7.518;2023-07-22T12:24:01;24.30;59.30
45807;DHT22;31507;51.494;7.518;2023-07-22T12:26:28;24.30;58.90
45807;DHT22;31507;51.494;7.518;2023-07-22T12:28:54;24.30;59.20
45807;DHT22;31507;51.494;7.518;2023-07-22T12:31:19;24.40;58.90
45807;DHT22;31507;51.494;7.518;2023-07-22T12:33:45;24.30;58.50
45807;DHT22;31507;51.494;7.518;2023-07-22T12:36:11;24.30;58.30
45807;DHT22;31507;51.494;7.518;2023-07-22T12:38:37;24.40;58.20
45807;DHT22;31507;51.494;7.518;2023-07-22T12:41:03;24.40;58.10
45807;DHT22;31507;51.494;7.518;2023-07-22T12:43:28;24.30;58.70
45807;DHT22;31507;51.494;7.518;2023-07-22T12:45:54;24.30;58.90
45807;DHT22;31507;51.494;7.518;2023-07-22T12:48:20;23.80;58.90
45807;DHT22;31507;51.494;7.518;2023-07-22T12:50:46;23.80;59.30
45807;DHT22;31507;51.494;7.518;2023-07-22T12:53:14;24.00;58.90
45807;DHT22;31507;51.494;7.518;2023-07-22T12:55:40;23.90;58.70
45807;DHT22;31507;51.494;7.518;2023-07-22T12:58:05;23.90;58.70
45807;DHT22;31507;51.494;7.518;2023-07-22T13:00:31;23.90;59.40
45807;DHT22;31507;51.494;7.518;2023-07-22T13:02:57;24.00;60.30
45807;DHT22;31507;51.494;7.518;2023-07-22T13:05:23;24.40;60.30
45807;DHT22;31507;51.494;7.518;2023-07-22T13:07:49;24.90;59.70
45807;DHT22;31507;51.494;7.518;2023-07-22T13:10:16;24.80;58.70
45807;DHT22;31507;51.494;7.518;2023-07-22T13:12:44;24.70;58.40
45807;DHT22;31507;51.494;7.518;2023-07-22T13:15:10;24.80;59.00
45807;DHT22;31507;51.494;7.518;2023-07-22T13:17:35;25.40;57.70
45807;DHT22;31507;51.494;7.518;2023-07-22T13:20:02;25.40;56.80
45807;DHT22;31507;51.494;7.518;2023-07-22T13:22:30;24.80;56.60
45807;DHT22;31507;51.494;7.518;2023-07-22T13:24:56;24.40;56.00
45807;DHT22;31507;51.494;7.518;2023-07-22T13:27:22;24.20;56.20
45807;DHT22;31507;51.494;7.518;2023-07-22T13:29:47;24.40;55.60
45807;DHT22;31507;51.494;7.518;2023-07-22T13:32:13;24.50;55.80
45807;DHT22;31507;51.494;7.518;2023-07-22T13:34:38;24.80;55.80
45807;DHT22;31507;51.494;7.518;2023-07-22T13:37:04;25.00;56.30
45807;DHT22;31507;51.494;7.518;2023-07-22T13:39:31;25.00;56.60
45807;DHT22;31507;51.494;7.518;2023-07-22T13:41:56;24.80;56.80
45807;DHT22;31507;51.494;7.518;2023-07-22T13:44:22;24.80;56.20
45807;DHT22;31507;51.494;7.518;2023-07-22T13:46:48;24.80;55.30
45807;DHT22;31507;51.494;7.518;2023-07-22T13:49:13;24.40;55.30
45807;DHT22;31507;51.494;7.518;2023-07-22T13:51:40;24.10;56.00
45807;DHT22;31507;51.494;7.518;2023-07-22T13:54:06;23.90;56.50
45807;DHT22;31507;51.494;7.518;2023-07-22T13:56:32;24.00;56.30
45807;DHT22;31507;51.494;7.518;2023-07-22T13:58:58;24.20;55.90
45807;DHT22;31507;51.494;7.518;2023-07-22T14:01:26;24.40;55.80
45807;DHT22;31507;51.494;7.518;2023-07-22T14:03:52;24.20;54.80
45807;DHT22;31507;51.494;7.518;2023-07-22T14:06:17;24.10;56.30
45807;DHT22;31507;51.494;7.518;2023-07-22T14:08:43;24.40;56.70
45807;DHT22;31507;51.494;7.518;2023-07-22T14:11:08;24.40;56.40
45807;DHT22;31507;51.494;7.518;2023-07-22T14:13:34;24.40;56.00
45807;DHT22;31507;51.494;7.518;2023-07-22T14:16:01;24.70;55.60
45807;DHT22;31507;51.494;7.518;2023-07-22T14:18:26;25.20;54.80
45807;DHT22;31507;51.494;7.518;2023-07-22T14:20:52;25.50;55.60
45807;DHT22;31507;51.494;7.518;2023-07-22T14:23:18;26.00;55.90
45807;DHT22;31507;51.494;7.518;2023-07-22T14:25:43;26.00;54.60
45807;DHT22;31507;51.494;7.518;2023-07-22T14:28:09;25.80;54.70
45807;DHT22;31507;51.494;7.518;2023-07-22T14:30:34;25.80;54.80
45807;DHT22;31507;51.494;7.518;2023-07-22T14:33:00;25.60;54.90
45807;DHT22;31507;51.494;7.518;2023-07-22T14:35:26;25.70;54.80
45807;DHT22;31507;51.494;7.518;2023-07-22T14:37:51;25.70;53.60
45807;DHT22;31507;51.494;7.518;2023-07-22T14:40:17;25.40;53.90
45807;DHT22;31507;51.494;7.518;2023-07-22T14:42:42;25.40;54.50
45807;DHT22;31507;51.494;7.518;2023-07-22T14:45:08;25.00;54.90
45807;DHT22;31507;51.494;7.518;2023-07-22T14:47:34;24.80;55.20
45807;DHT22;31507;51.494;7.518;2023-07-22T14:50:00;25.00;55.00
45807;DHT22;31507;51.494;7.518;2023-07-22T14:52:26;25.10;55.10
45807;DHT22;31507;51.494;7.518;2023-07-22T14:54:52;25.20;55.30
45807;DHT22;31507;51.494;7.518;2023-07-22T14:57:18;25.50;55.70
45807;DHT22;31507;51.494;7.518;2023-07-22T14:59:43;25.90;54.70
45807;DHT22;31507;51.494;7.518;2023-07-22T15:02:09;26.10;55.00
45807;DHT22;31507;51.494;7.518;2023-07-22T15:04:36;26.30;54.30
45807;DHT22;31507;51.494;7.518;2023-07-22T15:07:02;26.00;53.50
45807;DHT22;31507;51.494;7.518;2023-07-22T15:09:27;25.70;52.30
45807;DHT22;31507;51.494;7.518;2023-07-22T15:11:53;25.60;52.10
45807;DHT22;31507;51.494;7.518;2023-07-22T15:14:19;25.60;51.80
45807;DHT22;31507;51.494;7.518;2023-07-22T15:16:44;25.80;51.60
45807;DHT22;31507;51.494;7.518;2023-07-22T15:19:11;25.90;51.80
45807;DHT22;31507;51.494;7.518;2023-07-22T15:21:37;25.90;51.90
45807;DHT22;31507;51.494;7.518;2023-07-22T15:24:03;25.80;51.80
45807;DHT22;31507;51.494;7.518;2023-07-22T15:26:28;26.10;52.00
45807;DHT22;31507;51.494;7.518;2023-07-22T15:28:54;26.10;51.50
45807;DHT22;31507;51.494;7.518;2023-07-22T15:31:25;25.70;51.00
45807;DHT22;31507;51.494;7.518;2023-07-22T15:33:57;25.40;51.20
45807;DHT22;31507;51.494;7.518;2023-07-22T15:36:22;25.30;51.60
45807;DHT22;31507;51.494;7.518;2023-07-22T15:38:48;25.10;51.80
45807;DHT22;31507;51.494;7.518;2023-07-22T15:41:13;25.20;51.50
45807;DHT22;31507;51.494;7.518;2023-07-22T15:43:39;25.30;51.70
45807;DHT22;31507;51.494;7.518;2023-07-22T15:46:05;25.40;51.80